Time;durP1;ratioP1;P1;durP2;ratioP2;P2;SDS_P1;SDS_P2;PMS_P1;PMS_P2;Temp;Humidity;BMP_temperature;BMP_pressure;BME280_temperature;BME280_humidity;BME280_pressure;Samples;Min_cycle;Max_cycle;Signal;HPM_P1;HPM_P2
2023/09/19 00:01:08;;;;;;;7.65;2.50;;;14.40;88.80;;;;;;5070673;27;20538;-84
2023/09/19 00:03:37;;;;;;;5.90;2.55;;;14.30;87.90;;;;;;5075199;27;20048;-84
2023/09/19 00:06:15;;;;;;;9.98;3.00;;;14.30;86.90;;;;;;5086337;28;20040;-84
2023/09/19 00:08:44;;;;;;;4.50;2.00;;;14.30;86.30;;;;;;5096118;27;20042;-85
2023/09/19 00:11:10;;;;;;;10.35;2.85;;;14.20;85.50;;;;;;5082751;27;20043;-83
2023/09/19 00:13:36;;;;;;;8.70;1.92;;;14.20;84.60;;;;;;5089110;28;20051;-84
2023/09/19 00:16:10;;;;;;;4.50;2.30;;;14.10;83.90;;;;;;5061718;28;20487;-84
2023/09/19 00:18:36;;;;;;;7.78;2.67;;;14.10;83.20;;;;;;5071996;28;20052;-84
2023/09/19 00:21:04;;;;;;;7.82;2.35;;;14.00;83.80;;;;;;5102996;27;20084;-84
2023/09/19 00:23:31;;;;;;;11.95;3.50;;;14.00;82.70;;;;;;5081645;27;20039;-84
2023/09/19 00:26:00;;;;;;;8.90;2.45;;;14.00;82.50;;;;;;5111628;27;20453;-84
2023/09/19 00:28:27;;;;;;;9.38;2.40;;;13.90;82.10;;;;;;5095198;28;20093;-84
2023/09/19 00:30:54;;;;;;;6.80;2.45;;;13.90;82.10;;;;;;5075489;28;20047;-85
2023/09/19 00:33:20;;;;;;;8.70;2.67;;;13.80;81.50;;;;;;5078741;28;20035;-84
2023/09/19 00:35:53;;;;;;;8.02;2.65;;;13.80;80.90;;;;;;5071149;28;20036;-85
2023/09/19 00:38:22;;;;;;;9.98;3.15;;;13.80;80.10;;;;;;5086465;27;20104;-84
2023/09/19 00:40:48;;;;;;;9.85;2.92;;;13.80;81.00;;;;;;5095119;27;20054;-85
2023/09/19 00:43:14;;;;;;;6.20;1.98;;;13.70;80.30;;;;;;5060275;28;20047;-84
2023/09/19 00:45:47;;;;;;;9.57;3.20;;;13.70;79.80;;;;;;5073650;27;20096;-85
2023/09/19 00:48:14;;;;;;;8.13;2.30;;;13.70;80.00;;;;;;5086839;28;20039;-84
2023/09/19 00:50:42;;;;;;;10.02;3.88;;;13.60;80.20;;;;;;5073980;28;20043;-84
2023/09/19 00:53:10;;;;;;;6.32;2.53;;;13.60;80.30;;;;;;5113647;27;20055;-84
2023/09/19 00:55:37;;;;;;;7.65;2.55;;;13.60;80.30;;;;;;5089936;28;20105;-85
2023/09/19 00:58:06;;;;;;;6.90;2.55;;;13.60;80.00;;;;;;5075385;28;20516;-84
2023/09/19 01:00:34;;;;;;;8.00;2.97;;;13.50;79.80;;;;;;5065838;28;20074;-85
2023/09/19 01:03:03;;;;;;;12.93;2.92;;;13.50;79.80;;;;;;5057532;28;20055;-84
2023/09/19 01:05:29;;;;;;;6.72;2.72;;;13.40;80.30;;;;;;5076592;28;20478;-85
2023/09/19 01:07:55;;;;;;;8.68;2.92;;;13.40;81.10;;;;;;5074210;28;20086;-84
2023/09/19 01:10:22;;;;;;;9.60;2.97;;;13.40;82.20;;;;;;5105390;28;20106;-84
2023/09/19 01:13:14;;;;;;;13.07;3.15;;;13.30;84.00;;;;;;5085909;28;20051;-88
2023/09/19 01:16:19;;;;;;;7.50;3.10;;;13.30;84.30;;;;;;5059950;28;20372;-84
2023/09/19 01:19:32;;;;;;;8.98;3.42;;;13.30;86.80;;;;;;5103608;28;20060;-84
2023/09/19 01:22:11;;;;;;;7.10;2.80;;;13.20;89.40;;;;;;5025014;28;20209;-84
2023/09/19 01:25:11;;;;;;;8.93;2.85;;;13.30;88.50;;;;;;5092653;28;20066;-84
2023/09/19 01:27:53;;;;;;;8.95;3.53;;;13.30;88.50;;;;;;5096088;28;20045;-84
2023/09/19 01:30:22;;;;;;;10.68;3.10;;;13.30;87.80;;;;;;5083487;28;20059;-84
2023/09/19 01:32:54;;;;;;;9.30;3.38;;;13.30;87.30;;;;;;5070216;28;20044;-88
2023/09/19 01:35:20;;;;;;;6.93;3.33;;;13.30;87.20;;;;;;5043237;28;20068;-84
2023/09/19 01:37:46;;;;;;;6.13;2.77;;;13.30;87.10;;;;;;5081581;28;20081;-85
2023/09/19 01:40:17;;;;;;;13.07;3.83;;;13.20;86.70;;;;;;5090895;28;20479;-85
2023/09/19 01:43:09;;;;;;;10.10;3.35;;;13.20;86.50;;;;;;5071013;28;20079;-84
2023/09/19 01:45:53;;;;;;;9.80;2.60;;;13.20;85.50;;;;;;5073277;28;20052;-84
2023/09/19 01:49:06;;;;;;;10.95;3.10;;;13.20;84.50;;;;;;5067577;28;20510;-84
2023/09/19 01:51:53;;;;;;;6.88;2.75;;;13.20;84.00;;;;;;5089798;28;20545;-84
2023/09/19 01:54:26;;;;;;;9.80;3.45;;;13.20;83.70;;;;;;5083339;28;20123;-84
2023/09/19 01:57:11;;;;;;;9.35;3.45;;;13.20;82.90;;;;;;5096785;28;20088;-88
2023/09/19 01:59:45;;;;;;;12.55;3.92;;;13.20;82.30;;;;;;5084076;27;20050;-84
2023/09/19 02:02:11;;;;;;;10.65;3.50;;;12.30;80.80;;;;;;5097826;28;20061;-84
2023/09/19 02:04:37;;;;;;;13.10;3.60;;;13.10;80.90;;;;;;5065344;27;20065;-84
2023/09/19 02:07:05;;;;;;;6.83;2.47;;;13.10;80.20;;;;;;5077560;28;20039;-84
2023/09/19 02:09:33;;;;;;;10.60;3.10;;;13.10;80.40;;;;;;5065398;27;20459;-84
2023/09/19 02:11:59;;;;;;;7.93;2.72;;;13.00;80.70;;;;;;5083162;28;20043;-84
2023/09/19 02:14:24;;;;;;;8.27;3.17;;;13.00;80.10;;;;;;5093859;28;20094;-84
2023/09/19 02:16:50;;;;;;;7.43;2.73;;;13.00;79.50;;;;;;5050450;27;20096;-84
2023/09/19 02:19:17;;;;;;;8.43;3.00;;;13.00;79.90;;;;;;5100879;27;20051;-84
2023/09/19 02:21:43;;;;;;;12.73;3.00;;;13.00;80.50;;;;;;5064456;28;20081;-84
2023/09/19 02:24:09;;;;;;;5.70;2.58;;;12.90;80.80;;;;;;5093851;28;20470;-84
2023/09/19 02:26:36;;;;;;;8.52;3.30;;;12.90;81.10;;;;;;5092637;28;20552;-84
2023/09/19 02:29:04;;;;;;;;;;;12.90;81.50;;;;;;5061012;28;20055;-84
2023/09/19 02:31:30;;;;;;;9.77;3.20;;;12.80;82.80;;;;;;5066627;27;19920;-84
2023/09/19 02:33:56;;;;;;;7.22;4.43;;;12.80;82.60;;;;;;5089122;28;20036;-88
2023/09/19 02:36:23;;;;;;;5.50;3.93;;;12.80;82.60;;;;;;5079487;27;20035;-84
2023/09/19 02:38:49;;;;;;;;;;;12.70;83.00;;;;;;5101601;27;20141;-84
2023/09/19 02:41:15;;;;;;;9.95;3.78;;;12.70;87.30;;;;;;5092861;27;19931;-85
2023/09/19 02:43:42;;;;;;;7.70;3.57;;;12.70;85.90;;;;;;5077233;27;20048;-84
2023/09/19 02:46:08;;;;;;;8.10;3.20;;;12.70;87.60;;;;;;5098099;28;20151;-85
2023/09/19 02:48:35;;;;;;;11.13;3.33;;;12.70;87.40;;;;;;5093108;28;20060;-84
2023/09/19 02:51:02;;;;;;;7.55;3.30;;;12.70;88.10;;;;;;5075089;27;20129;-85
2023/09/19 02:53:32;;;;;;;8.82;3.25;;;12.70;89.30;;;;;;5097120;27;20054;-84
2023/09/19 02:55:58;;;;;;;6.43;3.25;;;12.70;90.00;;;;;;5064295;28;20044;-85
2023/09/19 02:58:24;;;;;;;9.18;3.20;;;12.60;90.30;;;;;;5065966;28;20036;-85
2023/09/19 03:00:51;;;;;;;8.60;3.13;;;12.70;90.70;;;;;;5077295;28;20556;-84
2023/09/19 03:03:17;;;;;;;8.95;2.88;;;12.70;90.80;;;;;;5080647;28;20048;-85
2023/09/19 03:05:47;;;;;;;6.63;2.95;;;12.70;91.00;;;;;;5114118;27;20061;-84
2023/09/19 03:08:14;;;;;;;6.30;2.70;;;12.60;91.00;;;;;;5078774;28;20510;-84
2023/09/19 03:10:40;;;;;;;15.00;3.42;;;12.60;91.10;;;;;;5076617;28;20128;-84
2023/09/19 03:13:09;;;;;;;9.57;3.25;;;12.60;91.20;;;;;;5097624;27;20086;-84
2023/09/19 03:15:38;;;;;;;7.35;3.22;;;12.60;91.20;;;;;;5073977;28;20051;-85
2023/09/19 03:18:04;;;;;;;11.82;2.95;;;12.60;91.30;;;;;;5092033;27;20050;-88
2023/09/19 03:20:30;;;;;;;10.65;3.13;;;12.60;91.40;;;;;;5116318;27;20059;-84
2023/09/19 03:22:57;;;;;;;11.07;3.47;;;12.60;91.40;;;;;;5111175;28;20043;-84
2023/09/19 03:25:23;;;;;;;;;;;12.60;91.60;;;;;;5062893;28;20840;-85
2023/09/19 03:27:48;;;;;;;8.55;2.83;;;12.60;92.80;;;;;;5096032;28;19931;-84
2023/09/19 03:30:14;;;;;;;6.40;3.00;;;12.70;91.50;;;;;;5092303;28;20036;-84
2023/09/19 03:32:49;;;;;;;12.63;2.90;;;12.70;91.40;;;;;;5085863;27;20039;-84
2023/09/19 03:35:16;;;;;;;12.02;3.55;;;12.70;91.30;;;;;;5110806;27;20096;-85
2023/09/19 03:37:42;;;;;;;6.95;2.95;;;12.70;91.30;;;;;;5062747;28;20396;-84
2023/09/19 03:40:12;;;;;;;9.40;2.90;;;12.80;91.30;;;;;;5085451;28;20055;-85
2023/09/19 03:42:41;;;;;;;10.82;3.13;;;12.80;91.50;;;;;;5098626;27;20386;-85
2023/09/19 03:45:12;;;;;;;10.80;2.88;;;12.80;91.30;;;;;;5065160;28;20498;-89
2023/09/19 03:47:41;;;;;;;9.02;2.80;;;12.80;91.10;;;;;;5097051;28;20480;-84
2023/09/19 03:50:08;;;;;;;9.05;3.15;;;12.70;90.90;;;;;;5095867;28;20050;-89
2023/09/19 03:52:34;;;;;;;7.82;2.60;;;12.70;90.70;;;;;;5077835;28;20039;-84
2023/09/19 03:55:01;;;;;;;11.05;2.78;;;12.70;90.40;;;;;;5059158;28;20377;-84
2023/09/19 03:57:26;;;;;;;6.43;2.35;;;12.60;90.30;;;;;;5090343;28;20105;-84
2023/09/19 03:59:53;;;;;;;12.37;3.53;;;12.60;90.30;;;;;;5070203;28;20051;-84
2023/09/19 04:02:23;;;;;;;7.90;3.45;;;12.60;90.20;;;;;;5108144;27;20058;-84
2023/09/19 04:04:50;;;;;;;7.07;3.22;;;12.60;89.70;;;;;;5099399;27;20058;-84
2023/09/19 04:07:16;;;;;;;9.27;2.75;;;12.60;89.40;;;;;;5089425;27;20172;-85
2023/09/19 04:09:41;;;;;;;8.05;2.75;;;12.60;88.90;;;;;;5077966;28;20040;-84
2023/09/19 04:12:08;;;;;;;14.30;3.23;;;12.60;88.50;;;;;;5086346;27;20047;-85
2023/09/19 04:14:34;;;;;;;8.27;3.13;;;12.60;89.10;;;;;;5060322;28;20039;-85
2023/09/19 04:17:00;;;;;;;5.45;3.08;;;12.60;88.60;;;;;;5065505;28;20044;-84
2023/09/19 04:19:26;;;;;;;9.07;2.70;;;12.60;88.90;;;;;;5073358;27;20126;-85
2023/09/19 04:21:52;;;;;;;7.83;2.73;;;12.60;88.60;;;;;;5065058;27;20078;-85
2023/09/19 04:24:19;;;;;;;4.47;2.73;;;12.60;88.80;;;;;;5088309;28;20289;-84
2023/09/19 04:26:45;;;;;;;13.40;3.22;;;12.70;88.70;;;;;;5082653;27;20058;-84
2023/09/19 04:29:13;;;;;;;7.05;3.50;;;12.70;89.10;;;;;;5079960;28;20111;-84
2023/09/19 04:31:39;;;;;;;6.43;2.33;;;12.70;88.80;;;;;;5058753;28;20071;-84
2023/09/19 04:34:10;;;;;;;6.10;3.03;;;12.70;89.40;;;;;;5091970;27;20078;-84
2023/09/19 04:36:36;;;;;;;5.15;2.83;;;12.80;89.90;;;;;;5081686;27;20053;-84
2023/09/19 04:39:07;;;;;;;9.43;3.22;;;12.80;90.70;;;;;;5062849;28;20127;-84
2023/09/19 04:41:33;;;;;;;6.60;2.53;;;12.80;90.90;;;;;;5058659;28;20101;-84
2023/09/19 04:44:00;;;;;;;7.80;3.33;;;12.80;91.20;;;;;;5085907;27;20039;-85
2023/09/19 04:46:25;;;;;;;7.28;3.58;;;12.80;91.80;;;;;;5060816;28;20083;-85
2023/09/19 04:48:51;;;;;;;7.73;3.60;;;12.80;92.00;;;;;;5047542;27;20086;-84
2023/09/19 04:51:18;;;;;;;8.07;3.17;;;12.90;93.20;;;;;;5058871;28;20098;-87
2023/09/19 04:53:44;;;;;;;8.98;3.85;;;12.90;94.00;;;;;;5079807;27;20107;-84
2023/09/19 04:56:10;;;;;;;5.77;3.00;;;12.90;94.30;;;;;;5101636;27;20482;-84
2023/09/19 04:58:35;;;;;;;13.73;4.00;;;12.90;94.40;;;;;;5115121;28;20042;-84
2023/09/19 05:01:02;;;;;;;7.60;3.17;;;12.90;94.70;;;;;;5068299;27;20055;-84
2023/09/19 05:03:27;;;;;;;10.75;3.92;;;12.90;94.90;;;;;;5065864;28;20044;-84
2023/09/19 05:05:54;;;;;;;11.63;2.90;;;12.90;95.60;;;;;;5052664;27;20039;-84
2023/09/19 05:08:19;;;;;;;9.27;3.35;;;12.90;96.20;;;;;;5066433;28;20083;-86
2023/09/19 05:10:45;;;;;;;10.07;3.80;;;12.90;96.50;;;;;;5072558;28;20470;-89
2023/09/19 05:13:12;;;;;;;9.20;3.00;;;12.90;96.30;;;;;;5090266;28;20051;-84
2023/09/19 05:15:39;;;;;;;8.45;3.50;;;12.90;96.40;;;;;;5057127;28;20043;-84
2023/09/19 05:18:06;;;;;;;7.45;3.20;;;12.90;96.80;;;;;;5075294;28;20475;-84
2023/09/19 05:20:39;;;;;;;6.70;3.30;;;12.90;97.00;;;;;;5057485;28;20135;-84
2023/09/19 05:23:08;;;;;;;12.73;3.35;;;12.90;97.10;;;;;;5092821;28;20403;-84
2023/09/19 05:25:38;;;;;;;12.30;4.40;;;12.90;97.30;;;;;;5057347;28;20105;-84
2023/09/19 05:28:09;;;;;;;13.93;3.90;;;12.90;97.70;;;;;;5058507;28;20552;-84
2023/09/19 05:30:39;;;;;;;11.93;3.38;;;12.90;97.80;;;;;;5057032;28;20048;-84
2023/09/19 05:33:05;;;;;;;9.73;4.20;;;12.90;97.50;;;;;;5083063;28;20083;-84
2023/09/19 05:35:31;;;;;;;11.75;3.67;;;12.90;97.60;;;;;;5066497;28;20046;-84
2023/09/19 05:37:58;;;;;;;9.82;4.47;;;12.90;97.70;;;;;;5087178;28;20441;-84
2023/09/19 05:40:24;;;;;;;9.13;3.67;;;12.90;97.80;;;;;;5072184;28;20059;-85
2023/09/19 05:42:50;;;;;;;;;;;12.90;97.80;;;;;;5087439;28;20119;-84
2023/09/19 05:45:22;;;;;;;11.98;3.60;;;12.90;99.30;;;;;;5074421;28;19920;-84
2023/09/19 05:47:48;;;;;;;9.57;3.83;;;12.90;97.80;;;;;;5076484;27;20184;-84
2023/09/19 05:50:16;;;;;;;11.48;3.17;;;12.90;97.50;;;;;;5099158;27;20059;-84
2023/09/19 05:52:42;;;;;;;11.52;3.13;;;12.90;97.50;;;;;;5072667;28;20039;-84
2023/09/19 05:55:08;;;;;;;9.70;3.05;;;12.90;97.10;;;;;;5080470;28;20044;-84
2023/09/19 05:57:35;;;;;;;10.63;4.32;;;12.90;96.90;;;;;;5088436;27;20487;-84
2023/09/19 06:00:01;;;;;;;11.43;4.72;;;12.90;96.70;;;;;;5084586;27;20043;-85
2023/09/19 06:02:28;;;;;;;15.05;4.68;;;12.90;96.50;;;;;;5096625;28;20036;-87
2023/09/19 06:04:55;;;;;;;10.27;3.63;;;12.90;96.40;;;;;;5069259;28;20075;-85
2023/09/19 06:07:22;;;;;;;;;;;12.90;96.30;;;;;;5078457;28;20438;-85
2023/09/19 06:09:47;;;;;;;9.43;3.20;;;12.90;96.00;;;;;;5078780;28;20008;-85
2023/09/19 06:12:15;;;;;;;11.77;3.70;;;12.90;95.80;;;;;;5076550;28;20464;-87
2023/09/19 06:14:41;;;;;;;12.23;4.25;;;12.90;95.40;;;;;;5083225;28;20044;-85
2023/09/19 06:17:07;;;;;;;11.27;3.43;;;12.90;94.90;;;;;;5102065;27;20031;-84
2023/09/19 06:19:32;;;;;;;8.70;3.47;;;12.90;94.70;;;;;;5080120;28;20047;-84
2023/09/19 06:21:59;;;;;;;8.30;3.80;;;12.90;94.30;;;;;;5044290;27;20480;-84
2023/09/19 06:24:25;;;;;;;11.05;3.83;;;13.00;93.90;;;;;;5061795;27;20062;-85
2023/09/19 06:26:52;;;;;;;9.13;3.03;;;13.10;93.70;;;;;;5072457;28;20164;-83
2023/09/19 06:29:20;;;;;;;12.52;3.78;;;13.30;93.20;;;;;;5072900;28;20040;-84
2023/09/19 06:31:47;;;;;;;9.00;3.88;;;13.50;92.70;;;;;;5094944;28;20503;-84
2023/09/19 06:34:15;;;;;;;13.90;4.03;;;13.90;91.30;;;;;;5097180;28;20047;-84
2023/09/19 06:36:41;;;;;;;8.25;3.25;;;14.30;88.10;;;;;;5097415;28;20043;-83
2023/09/19 06:39:10;;;;;;;8.40;3.40;;;14.40;83.00;;;;;;5081216;28;20042;-83
2023/09/19 06:41:38;;;;;;;9.82;3.20;;;14.50;81.60;;;;;;5098147;28;20039;-83
2023/09/19 06:44:05;;;;;;;8.88;3.38;;;14.50;76.50;;;;;;5059080;27;20113;-85
2023/09/19 06:46:34;;;;;;;10.85;3.33;;;14.70;70.70;;;;;;5078928;27;20051;-85
2023/09/19 06:49:06;;;;;;;7.70;2.88;;;14.80;65.90;;;;;;5109320;27;20047;-81
2023/09/19 06:51:34;;;;;;;9.80;3.97;;;14.80;60.90;;;;;;5077478;27;20086;-84
2023/09/19 06:54:01;;;;;;;8.40;2.83;;;14.90;56.80;;;;;;5113210;27;20044;-83
2023/09/19 06:56:27;;;;;;;8.68;3.40;;;15.10;52.80;;;;;;5088943;28;20455;-82
2023/09/19 06:58:52;;;;;;;9.63;3.33;;;15.20;46.00;;;;;;5085614;28;20086;-83
2023/09/19 07:01:18;;;;;;;10.27;2.87;;;15.30;37.20;;;;;;5076220;28;20054;-84
2023/09/19 07:03:45;;;;;;;7.47;2.85;;;15.50;33.50;;;;;;5087175;28;20305;-82
2023/09/19 07:06:11;;;;;;;6.35;2.60;;;15.60;29.20;;;;;;5040201;28;20411;-83
2023/09/19 07:08:38;;;;;;;7.55;2.85;;;15.50;22.30;;;;;;5088101;28;20051;-83
2023/09/19 07:11:05;;;;;;;5.55;2.50;;;15.50;19.90;;;;;;5095392;28;20048;-83
2023/09/19 07:13:32;;;;;;;9.82;3.50;;;15.50;15.30;;;;;;5093930;28;20090;-82
2023/09/19 07:15:59;;;;;;;;;;;15.50;12.30;;;;;;5090409;27;20070;-83
2023/09/19 07:18:25;;;;;;;9.65;3.20;;;15.60;1.00;;;;;;5117235;27;19930;-83
2023/09/19 07:20:51;;;;;;;12.20;2.83;;;15.70;14.40;;;;;;5116878;27;20536;-83
2023/09/19 07:23:19;;;;;;;9.10;2.72;;;15.80;6.70;;;;;;5117556;27;20058;-83
2023/09/19 07:25:46;;;;;;;10.40;3.33;;;16.00;1.00;;;;;;5109909;27;20052;-83
2023/09/19 07:28:12;;;;;;;11.55;3.30;;;16.10;1.00;;;;;;5101334;28;20043;-83
2023/09/19 07:30:38;;;;;;;12.68;3.13;;;16.00;1.00;;;;;;5083234;28;20044;-82
2023/09/19 07:33:05;;;;;;;10.52;3.22;;;15.90;1.00;;;;;;5094701;28;20487;-81
2023/09/19 07:35:31;;;;;;;;;;;15.80;1.00;;;;;;5080164;28;20063;-83
2023/09/19 07:38:01;;;;;;;10.10;2.97;;;15.70;1.00;;;;;;5079501;28;19969;-86
2023/09/19 07:40:28;;;;;;;10.45;3.17;;;15.60;1.00;;;;;;5079904;28;20043;-83
2023/09/19 07:43:01;;;;;;;7.07;3.47;;;15.50;1.00;;;;;;5071441;27;20044;-83
2023/09/19 07:45:27;;;;;;;11.65;2.85;;;15.40;1.00;;;;;;5085286;27;20103;-84
2023/09/19 07:47:53;;;;;;;;;;;15.20;1.00;;;;;;5117028;27;20471;-84
2023/09/19 07:50:19;;;;;;;12.32;3.05;;;15.10;1.00;;;;;;5079077;28;19962;-84
2023/09/19 07:52:53;;;;;;;7.55;2.80;;;15.00;7.10;;;;;;5047094;27;20065;-83
2023/09/19 07:55:22;;;;;;;8.93;2.80;;;15.00;9.60;;;;;;5059097;28;20044;-83
2023/09/19 07:57:48;;;;;;;8.80;3.22;;;15.10;10.40;;;;;;5077050;28;20419;-84
2023/09/19 08:00:15;;;;;;;11.73;3.55;;;15.30;7.00;;;;;;5043271;28;20046;-85
2023/09/19 08:02:41;;;;;;;7.28;2.90;;;15.40;1.20;;;;;;5076687;28;20127;-88
2023/09/19 08:05:10;;;;;;;9.63;3.95;;;15.40;1.00;;;;;;5083649;28;20048;-84
2023/09/19 08:07:40;;;;;;;7.22;2.95;;;15.40;1.00;;;;;;5095735;28;20379;-84
2023/09/19 08:10:13;;;;;;;7.07;3.05;;;14.50;1.00;;;;;;5097892;28;20088;-84
2023/09/19 08:12:46;;;;;;;9.30;3.05;;;15.50;1.00;;;;;;5097453;28;20039;-85
2023/09/19 08:15:13;;;;;;;10.43;3.20;;;15.50;1.00;;;;;;5095629;28;20066;-85
2023/09/19 08:17:39;;;;;;;9.98;3.72;;;15.60;1.30;;;;;;5074515;28;20058;-85
2023/09/19 08:20:05;;;;;;;8.75;3.08;;;15.70;1.00;;;;;;5058197;28;20056;-84
2023/09/19 08:22:32;;;;;;;9.90;3.72;;;15.80;1.00;;;;;;5075683;28;20051;-84
2023/09/19 08:24:58;;;;;;;12.23;3.53;;;15.90;1.00;;;;;;5084799;28;20060;-86
2023/09/19 08:27:26;;;;;;;9.98;3.55;;;16.00;1.00;;;;;;5073818;28;20048;-85
2023/09/19 08:29:53;;;;;;;11.00;3.10;;;16.00;1.00;;;;;;5092297;28;20047;-86
2023/09/19 08:32:23;;;;;;;10.80;3.75;;;16.00;1.00;;;;;;5080362;28;20127;-86
2023/09/19 08:34:49;;;;;;;9.88;3.58;;;16.00;1.00;;;;;;5056345;28;20061;-85
2023/09/19 08:37:18;;;;;;;10.20;3.25;;;16.00;1.00;;;;;;5093878;28;20048;-85
2023/09/19 08:39:44;;;;;;;11.63;3.45;;;15.90;1.00;;;;;;5082952;28;20040;-89
2023/09/19 08:42:11;;;;;;;7.43;3.45;;;16.00;1.00;;;;;;5064185;28;20044;-85
2023/09/19 08:44:40;;;;;;;17.77;3.80;;;16.00;1.00;;;;;;5097243;28;20071;-85
2023/09/19 08:47:16;;;;;;;7.93;3.83;;;16.00;1.00;;;;;;5079688;28;20058;-84
2023/09/19 08:50:00;;;;;;;15.20;4.90;;;16.10;1.00;;;;;;5080195;27;20400;-84
2023/09/19 08:52:33;;;;;;;10.75;3.80;;;16.10;1.00;;;;;;5085575;28;20045;-83
2023/09/19 08:55:04;;;;;;;10.18;3.10;;;16.10;1.00;;;;;;5092972;27;20051;-85
2023/09/19 08:57:34;;;;;;;8.95;3.30;;;16.10;1.00;;;;;;5088007;28;20039;-82
2023/09/19 09:00:04;;;;;;;7.85;3.25;;;16.20;1.00;;;;;;5076786;28;20542;-83
2023/09/19 09:02:31;;;;;;;14.30;3.83;;;16.30;1.00;;;;;;5078983;28;20164;-85
2023/09/19 09:04:59;;;;;;;14.18;4.43;;;16.40;1.00;;;;;;5095001;28;20050;-87
2023/09/19 09:07:25;;;;;;;11.02;3.83;;;16.30;1.00;;;;;;5096309;27;20043;-89
2023/09/19 09:09:51;;;;;;;11.65;4.00;;;16.20;1.00;;;;;;5096346;28;20082;-85
2023/09/19 09:12:17;;;;;;;11.73;3.38;;;16.20;1.00;;;;;;5076410;28;20048;-85
2023/09/19 09:14:48;;;;;;;10.30;3.88;;;16.10;1.00;;;;;;5079992;28;20040;-85
2023/09/19 09:17:15;;;;;;;14.32;3.42;;;16.10;1.00;;;;;;5085501;28;20062;-85
2023/09/19 09:19:42;;;;;;;12.52;4.78;;;16.20;1.00;;;;;;5070213;28;20055;-86
2023/09/19 09:22:11;;;;;;;8.45;3.25;;;16.20;1.00;;;;;;5058139;28;20048;-85
2023/09/19 09:24:50;;;;;;;11.20;3.47;;;16.20;1.00;;;;;;5072268;28;20056;-85
2023/09/19 09:27:17;;;;;;;12.80;3.45;;;16.40;1.00;;;;;;5095326;28;20073;-84
2023/09/19 09:29:51;;;;;;;10.32;2.92;;;16.50;1.00;;;;;;5075102;28;20036;-85
2023/09/19 09:32:26;;;;;;;9.30;3.20;;;16.60;1.00;;;;;;5089016;28;20083;-84
2023/09/19 09:34:53;;;;;;;12.63;3.83;;;16.70;1.00;;;;;;5095815;28;20046;-91
2023/09/19 09:37:20;;;;;;;8.82;3.35;;;16.80;1.00;;;;;;5094025;28;20128;-84
2023/09/19 09:39:58;;;;;;;14.23;3.85;;;16.90;1.00;;;;;;5091580;28;20043;-88
2023/09/19 09:42:32;;;;;;;9.70;3.63;;;16.90;1.00;;;;;;5096211;28;20103;-86
2023/09/19 09:48:03;;;;;;;5.97;3.30;;;17.00;1.00;;;;;;5092953;28;20085;-86
2023/09/19 09:50:55;;;;;;;14.15;3.58;;;17.10;1.00;;;;;;5078248;28;20056;-85
2023/09/19 09:53:30;;;;;;;9.75;3.08;;;17.20;1.00;;;;;;5076616;28;20093;-84
